sensor_id;sensor_type;location;lat;lon;timestamp;P1;durP1;ratioP1;P2;durP2;ratioP2
2404;SDS011;1213;43.206;27.922;2023-01-08T00:02:07;9.03;;;7.33;;
2404;SDS011;1213;43.206;27.922;2023-01-08T00:04:33;9.73;;;7.77;;
2404;SDS011;1213;43.206;27.922;2023-01-08T00:06:58;7.63;;;7.00;;
2404;SDS011;1213;43.206;27.922;2023-01-08T00:09:23;9.40;;;7.80;;
2404;SDS011;1213;43.206;27.922;2023-01-08T00:11:49;15.63;;;7.93;;
2404;SDS011;1213;43.206;27.922;2023-01-08T00:14:14;13.73;;;10.03;;
2404;SDS011;1213;43.206;27.922;2023-01-08T00:16:39;14.13;;;7.87;;
2404;SDS011;1213;43.206;27.922;2023-01-08T00:19:05;10.17;;;7.87;;
2404;SDS011;1213;43.206;27.922;2023-01-08T00:21:30;11.20;;;8.43;;
2404;SDS011;1213;43.206;27.922;2023-01-08T00:23:55;12.47;;;8.63;;
2404;SDS011;1213;43.206;27.922;2023-01-08T00:26:20;10.70;;;8.37;;
2404;SDS011;1213;43.206;27.922;2023-01-08T00:28:46;9.67;;;8.17;;
2404;SDS011;1213;43.206;27.922;2023-01-08T00:31:11;9.53;;;7.33;;
2404;SDS011;1213;43.206;27.922;2023-01-08T00:33:36;9.73;;;7.43;;
2404;SDS011;1213;43.206;27.922;2023-01-08T00:36:06;12.20;;;7.90;;
2404;SDS011;1213;43.206;27.922;2023-01-08T00:38:31;12.93;;;9.37;;
2404;SDS011;1213;43.206;27.922;2023-01-08T00:40:56;21.70;;;10.20;;
2404;SDS011;1213;43.206;27.922;2023-01-08T00:43:22;11.70;;;10.30;;
2404;SDS011;1213;43.206;27.922;2023-01-08T00:45:47;18.83;;;9.50;;
2404;SDS011;1213;43.206;27.922;2023-01-08T00:48:15;17.00;;;8.47;;
2404;SDS011;1213;43.206;27.922;2023-01-08T00:50:40;14.70;;;10.17;;
2404;SDS011;1213;43.206;27.922;2023-01-08T00:53:06;8.60;;;7.77;;
2404;SDS011;1213;43.206;27.922;2023-01-08T00:55:31;13.97;;;8.80;;
2404;SDS011;1213;43.206;27.922;2023-01-08T00:57:56;20.40;;;10.87;;
2404;SDS011;1213;43.206;27.922;2023-01-08T01:00:22;13.03;;;9.10;;
2404;SDS011;1213;43.206;27.922;2023-01-08T01:02:47;12.17;;;8.93;;
2404;SDS011;1213;43.206;27.922;2023-01-08T01:05:13;9.83;;;8.67;;
2404;SDS011;1213;43.206;27.922;2023-01-08T01:07:44;14.67;;;9.90;;
2404;SDS011;1213;43.206;27.922;2023-01-08T01:10:11;12.50;;;8.30;;
2404;SDS011;1213;43.206;27.922;2023-01-08T01:12:37;19.63;;;12.70;;
2404;SDS011;1213;43.206;27.922;2023-01-08T01:15:03;14.67;;;10.63;;
2404;SDS011;1213;43.206;27.922;2023-01-08T01:17:29;15.40;;;10.43;;
2404;SDS011;1213;43.206;27.922;2023-01-08T01:19:54;18.50;;;11.63;;
2404;SDS011;1213;43.206;27.922;2023-01-08T01:22:19;10.80;;;9.07;;
2404;SDS011;1213;43.206;27.922;2023-01-08T01:24:45;19.30;;;11.53;;
2404;SDS011;1213;43.206;27.922;2023-01-08T01:27:10;13.93;;;10.97;;
2404;SDS011;1213;43.206;27.922;2023-01-08T01:29:35;14.97;;;12.13;;
2404;SDS011;1213;43.206;27.922;2023-01-08T01:32:01;25.97;;;12.83;;
2404;SDS011;1213;43.206;27.922;2023-01-08T01:34:26;19.60;;;13.60;;
2404;SDS011;1213;43.206;27.922;2023-01-08T01:36:51;27.27;;;16.40;;
2404;SDS011;1213;43.206;27.922;2023-01-08T01:39:16;31.37;;;19.87;;
2404;SDS011;1213;43.206;27.922;2023-01-08T01:41:44;36.63;;;21.10;;
2404;SDS011;1213;43.206;27.922;2023-01-08T01:46:53;35.53;;;20.80;;
2404;SDS011;1213;43.206;27.922;2023-01-08T01:49:19;34.40;;;22.77;;
2404;SDS011;1213;43.206;27.922;2023-01-08T01:51:48;38.13;;;28.17;;
2404;SDS011;1213;43.206;27.922;2023-01-08T01:54:15;44.43;;;27.80;;
2404;SDS011;1213;43.206;27.922;2023-01-08T01:56:42;46.20;;;30.40;;
2404;SDS011;1213;43.206;27.922;2023-01-08T01:59:07;53.27;;;30.50;;
2404;SDS011;1213;43.206;27.922;2023-01-08T02:01:33;40.40;;;31.17;;
2404;SDS011;1213;43.206;27.922;2023-01-08T02:03:58;44.43;;;32.83;;
2404;SDS011;1213;43.206;27.922;2023-01-08T02:08:57;51.37;;;33.67;;
2404;SDS011;1213;43.206;27.922;2023-01-08T02:14:12;49.90;;;30.73;;
2404;SDS011;1213;43.206;27.922;2023-01-08T02:21:59;32.70;;;22.30;;
2404;SDS011;1213;43.206;27.922;2023-01-08T02:27:04;23.20;;;17.77;;
2404;SDS011;1213;43.206;27.922;2023-01-08T02:29:30;24.17;;;15.47;;
2404;SDS011;1213;43.206;27.922;2023-01-08T02:31:56;19.47;;;15.40;;
2404;SDS011;1213;43.206;27.922;2023-01-08T02:34:22;22.37;;;14.77;;
2404;SDS011;1213;43.206;27.922;2023-01-08T02:36:49;14.63;;;10.67;;
2404;SDS011;1213;43.206;27.922;2023-01-08T02:39:24;24.30;;;12.87;;
2404;SDS011;1213;43.206;27.922;2023-01-08T02:47:10;29.10;;;13.27;;
2404;SDS011;1213;43.206;27.922;2023-01-08T02:49:37;19.57;;;11.93;;
2404;SDS011;1213;43.206;27.922;2023-01-08T02:52:03;35.13;;;15.10;;
2404;SDS011;1213;43.206;27.922;2023-01-08T02:54:30;20.47;;;12.33;;
2404;SDS011;1213;43.206;27.922;2023-01-08T02:57:07;24.37;;;11.50;;
2404;SDS011;1213;43.206;27.922;2023-01-08T02:59:33;13.30;;;9.70;;
2404;SDS011;1213;43.206;27.922;2023-01-08T03:02:00;12.87;;;8.43;;
2404;SDS011;1213;43.206;27.922;2023-01-08T03:04:26;14.70;;;10.47;;
2404;SDS011;1213;43.206;27.922;2023-01-08T03:06:54;16.67;;;9.03;;
2404;SDS011;1213;43.206;27.922;2023-01-08T03:09:19;19.43;;;10.87;;
2404;SDS011;1213;43.206;27.922;2023-01-08T03:11:48;16.83;;;10.40;;
2404;SDS011;1213;43.206;27.922;2023-01-08T03:14:17;14.73;;;10.30;;
2404;SDS011;1213;43.206;27.922;2023-01-08T03:16:45;16.13;;;9.40;;
2404;SDS011;1213;43.206;27.922;2023-01-08T03:19:13;17.53;;;9.40;;
2404;SDS011;1213;43.206;27.922;2023-01-08T03:21:41;14.10;;;9.30;;
2404;SDS011;1213;43.206;27.922;2023-01-08T03:24:07;17.97;;;9.40;;
2404;SDS011;1213;43.206;27.922;2023-01-08T03:26:36;11.73;;;10.00;;
2404;SDS011;1213;43.206;27.922;2023-01-08T03:29:02;15.63;;;10.20;;
2404;SDS011;1213;43.206;27.922;2023-01-08T03:31:29;16.33;;;8.30;;
2404;SDS011;1213;43.206;27.922;2023-01-08T03:33:55;12.17;;;8.47;;
2404;SDS011;1213;43.206;27.922;2023-01-08T03:36:21;12.90;;;9.77;;
2404;SDS011;1213;43.206;27.922;2023-01-08T03:38:50;12.67;;;9.23;;
2404;SDS011;1213;43.206;27.922;2023-01-08T03:41:18;12.80;;;8.17;;
2404;SDS011;1213;43.206;27.922;2023-01-08T03:43:43;14.17;;;8.77;;
2404;SDS011;1213;43.206;27.922;2023-01-08T03:46:19;13.63;;;8.80;;
2404;SDS011;1213;43.206;27.922;2023-01-08T03:48:45;12.80;;;9.10;;
2404;SDS011;1213;43.206;27.922;2023-01-08T03:51:13;13.83;;;9.47;;
2404;SDS011;1213;43.206;27.922;2023-01-08T03:53:38;8.43;;;7.27;;
2404;SDS011;1213;43.206;27.922;2023-01-08T03:56:04;18.13;;;9.17;;
2404;SDS011;1213;43.206;27.922;2023-01-08T03:58:29;14.93;;;8.10;;
2404;SDS011;1213;43.206;27.922;2023-01-08T04:00:54;16.07;;;10.07;;
2404;SDS011;1213;43.206;27.922;2023-01-08T04:03:19;18.27;;;8.97;;
2404;SDS011;1213;43.206;27.922;2023-01-08T04:05:45;19.90;;;9.57;;
2404;SDS011;1213;43.206;27.922;2023-01-08T04:08:10;11.50;;;8.07;;
2404;SDS011;1213;43.206;27.922;2023-01-08T04:10:36;15.70;;;8.97;;
2404;SDS011;1213;43.206;27.922;2023-01-08T04:13:02;15.40;;;9.13;;
2404;SDS011;1213;43.206;27.922;2023-01-08T04:15:27;14.70;;;10.27;;
2404;SDS011;1213;43.206;27.922;2023-01-08T04:17:52;15.30;;;9.30;;
2404;SDS011;1213;43.206;27.922;2023-01-08T04:20:18;21.20;;;11.67;;
2404;SDS011;1213;43.206;27.922;2023-01-08T04:22:43;15.47;;;11.00;;
2404;SDS011;1213;43.206;27.922;2023-01-08T04:25:08;19.60;;;11.10;;
2404;SDS011;1213;43.206;27.922;2023-01-08T04:27:34;18.53;;;12.23;;
2404;SDS011;1213;43.206;27.922;2023-01-08T04:29:59;14.17;;;10.83;;
2404;SDS011;1213;43.206;27.922;2023-01-08T04:32:24;14.80;;;9.10;;
2404;SDS011;1213;43.206;27.922;2023-01-08T04:34:50;12.27;;;8.23;;
2404;SDS011;1213;43.206;27.922;2023-01-08T04:37:15;12.53;;;10.13;;
2404;SDS011;1213;43.206;27.922;2023-01-08T04:39:41;19.60;;;11.37;;
2404;SDS011;1213;43.206;27.922;2023-01-08T04:42:06;12.47;;;9.37;;
2404;SDS011;1213;43.206;27.922;2023-01-08T04:44:31;22.60;;;11.07;;
2404;SDS011;1213;43.206;27.922;2023-01-08T04:46:58;14.87;;;8.37;;
2404;SDS011;1213;43.206;27.922;2023-01-08T04:49:23;11.97;;;8.73;;
2404;SDS011;1213;43.206;27.922;2023-01-08T04:51:48;19.30;;;10.70;;
2404;SDS011;1213;43.206;27.922;2023-01-08T04:54:13;28.87;;;12.00;;
2404;SDS011;1213;43.206;27.922;2023-01-08T04:56:39;16.83;;;9.60;;
2404;SDS011;1213;43.206;27.922;2023-01-08T04:59:04;20.17;;;12.87;;
2404;SDS011;1213;43.206;27.922;2023-01-08T05:01:30;30.57;;;10.40;;
2404;SDS011;1213;43.206;27.922;2023-01-08T05:03:59;14.63;;;10.07;;
2404;SDS011;1213;43.206;27.922;2023-01-08T05:06:24;16.23;;;9.90;;
2404;SDS011;1213;43.206;27.922;2023-01-08T05:08:50;19.93;;;9.83;;
2404;SDS011;1213;43.206;27.922;2023-01-08T05:11:15;20.77;;;10.27;;
2404;SDS011;1213;43.206;27.922;2023-01-08T05:13:41;13.97;;;10.10;;
2404;SDS011;1213;43.206;27.922;2023-01-08T05:16:06;18.67;;;10.67;;
2404;SDS011;1213;43.206;27.922;2023-01-08T05:18:31;18.57;;;11.40;;
2404;SDS011;1213;43.206;27.922;2023-01-08T05:21:00;15.80;;;10.27;;
2404;SDS011;1213;43.206;27.922;2023-01-08T05:23:26;19.13;;;10.50;;
2404;SDS011;1213;43.206;27.922;2023-01-08T05:25:51;19.80;;;11.37;;
2404;SDS011;1213;43.206;27.922;2023-01-08T05:28:16;19.50;;;11.57;;
2404;SDS011;1213;43.206;27.922;2023-01-08T05:30:42;14.60;;;9.20;;
2404;SDS011;1213;43.206;27.922;2023-01-08T05:33:07;14.27;;;9.60;;
2404;SDS011;1213;43.206;27.922;2023-01-08T05:35:32;21.23;;;13.97;;
2404;SDS011;1213;43.206;27.922;2023-01-08T05:37:58;31.20;;;16.50;;
2404;SDS011;1213;43.206;27.922;2023-01-08T05:40:23;20.83;;;11.80;;
2404;SDS011;1213;43.206;27.922;2023-01-08T05:42:49;26.70;;;17.17;;
2404;SDS011;1213;43.206;27.922;2023-01-08T05:45:14;27.13;;;16.43;;
2404;SDS011;1213;43.206;27.922;2023-01-08T05:47:40;28.30;;;18.00;;
2404;SDS011;1213;43.206;27.922;2023-01-08T05:50:06;24.37;;;16.67;;
2404;SDS011;1213;43.206;27.922;2023-01-08T05:52:31;27.77;;;16.93;;
2404;SDS011;1213;43.206;27.922;2023-01-08T05:54:56;23.47;;;14.73;;
2404;SDS011;1213;43.206;27.922;2023-01-08T05:57:24;27.30;;;16.03;;
2404;SDS011;1213;43.206;27.922;2023-01-08T05:59:49;23.70;;;15.13;;
2404;SDS011;1213;43.206;27.922;2023-01-08T06:02:14;26.53;;;16.40;;
2404;SDS011;1213;43.206;27.922;2023-01-08T06:04:39;20.10;;;14.50;;
2404;SDS011;1213;43.206;27.922;2023-01-08T06:07:05;18.07;;;11.67;;
2404;SDS011;1213;43.206;27.922;2023-01-08T06:09:30;16.00;;;13.20;;
2404;SDS011;1213;43.206;27.922;2023-01-08T06:11:55;17.80;;;12.87;;
2404;SDS011;1213;43.206;27.922;2023-01-08T06:14:22;18.67;;;13.27;;
2404;SDS011;1213;43.206;27.922;2023-01-08T06:16:47;17.03;;;12.30;;
2404;SDS011;1213;43.206;27.922;2023-01-08T06:19:12;28.33;;;12.83;;
2404;SDS011;1213;43.206;27.922;2023-01-08T06:21:38;16.20;;;11.93;;
2404;SDS011;1213;43.206;27.922;2023-01-08T06:24:03;21.57;;;13.00;;
2404;SDS011;1213;43.206;27.922;2023-01-08T06:26:28;21.90;;;11.83;;
2404;SDS011;1213;43.206;27.922;2023-01-08T06:28:54;19.40;;;12.70;;
2404;SDS011;1213;43.206;27.922;2023-01-08T06:31:19;19.77;;;12.13;;
2404;SDS011;1213;43.206;27.922;2023-01-08T06:33:44;19.27;;;13.17;;
2404;SDS011;1213;43.206;27.922;2023-01-08T06:36:09;27.40;;;13.20;;
2404;SDS011;1213;43.206;27.922;2023-01-08T06:38:35;22.63;;;13.03;;
2404;SDS011;1213;43.206;27.922;2023-01-08T06:41:04;18.97;;;12.20;;
2404;SDS011;1213;43.206;27.922;2023-01-08T06:43:29;21.53;;;13.77;;
2404;SDS011;1213;43.206;27.922;2023-01-08T06:45:55;16.97;;;10.60;;
2404;SDS011;1213;43.206;27.922;2023-01-08T06:48:22;22.53;;;11.50;;
2404;SDS011;1213;43.206;27.922;2023-01-08T06:50:48;24.50;;;14.87;;
2404;SDS011;1213;43.206;27.922;2023-01-08T06:53:13;19.80;;;10.43;;
2404;SDS011;1213;43.206;27.922;2023-01-08T06:55:39;16.87;;;10.03;;
2404;SDS011;1213;43.206;27.922;2023-01-08T06:58:06;15.70;;;10.87;;
2404;SDS011;1213;43.206;27.922;2023-01-08T07:00:31;11.17;;;9.73;;
2404;SDS011;1213;43.206;27.922;2023-01-08T07:02:57;13.37;;;10.27;;
2404;SDS011;1213;43.206;27.922;2023-01-08T07:05:23;16.63;;;9.47;;
2404;SDS011;1213;43.206;27.922;2023-01-08T07:07:49;12.13;;;8.80;;
2404;SDS011;1213;43.206;27.922;2023-01-08T07:10:14;15.40;;;8.57;;
2404;SDS011;1213;43.206;27.922;2023-01-08T07:12:39;12.40;;;8.97;;
2404;SDS011;1213;43.206;27.922;2023-01-08T07:15:05;13.00;;;8.93;;
2404;SDS011;1213;43.206;27.922;2023-01-08T07:17:31;17.77;;;9.80;;
2404;SDS011;1213;43.206;27.922;2023-01-08T07:19:56;18.83;;;10.87;;
2404;SDS011;1213;43.206;27.922;2023-01-08T07:22:21;16.80;;;9.90;;
2404;SDS011;1213;43.206;27.922;2023-01-08T07:24:48;15.17;;;10.50;;
2404;SDS011;1213;43.206;27.922;2023-01-08T07:27:13;16.80;;;11.33;;
2404;SDS011;1213;43.206;27.922;2023-01-08T07:29:38;16.60;;;10.03;;
2404;SDS011;1213;43.206;27.922;2023-01-08T07:32:04;15.73;;;11.33;;
2404;SDS011;1213;43.206;27.922;2023-01-08T07:34:29;23.53;;;9.90;;
2404;SDS011;1213;43.206;27.922;2023-01-08T07:36:54;20.13;;;9.97;;
2404;SDS011;1213;43.206;27.922;2023-01-08T07:39:20;12.70;;;8.60;;
2404;SDS011;1213;43.206;27.922;2023-01-08T07:41:45;14.43;;;8.10;;
2404;SDS011;1213;43.206;27.922;2023-01-08T07:44:11;19.50;;;10.67;;
2404;SDS011;1213;43.206;27.922;2023-01-08T07:46:36;10.30;;;8.67;;
2404;SDS011;1213;43.206;27.922;2023-01-08T07:49:01;11.47;;;8.30;;
2404;SDS011;1213;43.206;27.922;2023-01-08T07:51:27;9.43;;;6.90;;
2404;SDS011;1213;43.206;27.922;2023-01-08T07:53:53;9.33;;;6.87;;
2404;SDS011;1213;43.206;27.922;2023-01-08T07:56:20;8.47;;;5.40;;
2404;SDS011;1213;43.206;27.922;2023-01-08T07:58:45;8.27;;;6.63;;
2404;SDS011;1213;43.206;27.922;2023-01-08T08:01:11;7.10;;;6.40;;
2404;SDS011;1213;43.206;27.922;2023-01-08T08:03:36;8.97;;;6.10;;
2404;SDS011;1213;43.206;27.922;2023-01-08T08:06:02;7.27;;;5.77;;
2404;SDS011;1213;43.206;27.922;2023-01-08T08:08:27;11.83;;;6.50;;
2404;SDS011;1213;43.206;27.922;2023-01-08T08:10:52;6.57;;;5.40;;
2404;SDS011;1213;43.206;27.922;2023-01-08T08:13:18;10.37;;;6.20;;
2404;SDS011;1213;43.206;27.922;2023-01-08T08:15:43;10.00;;;5.63;;
2404;SDS011;1213;43.206;27.922;2023-01-08T08:18:08;11.30;;;6.57;;
2404;SDS011;1213;43.206;27.922;2023-01-08T08:20:34;7.93;;;6.63;;
2404;SDS011;1213;43.206;27.922;2023-01-08T08:23:00;8.97;;;6.47;;
2404;SDS011;1213;43.206;27.922;2023-01-08T08:25:26;9.77;;;6.83;;
2404;SDS011;1213;43.206;27.922;2023-01-08T08:27:51;10.60;;;6.73;;
2404;SDS011;1213;43.206;27.922;2023-01-08T08:30:16;11.70;;;7.17;;
2404;SDS011;1213;43.206;27.922;2023-01-08T08:32:41;12.17;;;8.10;;
2404;SDS011;1213;43.206;27.922;2023-01-08T08:35:07;11.77;;;6.73;;
2404;SDS011;1213;43.206;27.922;2023-01-08T08:37:32;7.07;;;6.20;;
2404;SDS011;1213;43.206;27.922;2023-01-08T08:39:57;9.93;;;7.67;;
2404;SDS011;1213;43.206;27.922;2023-01-08T08:42:23;10.83;;;6.93;;
2404;SDS011;1213;43.206;27.922;2023-01-08T08:44:49;8.00;;;6.57;;
2404;SDS011;1213;43.206;27.922;2023-01-08T08:47:15;8.83;;;7.77;;
2404;SDS011;1213;43.206;27.922;2023-01-08T08:49:40;8.73;;;6.30;;
2404;SDS011;1213;43.206;27.922;2023-01-08T08:52:05;10.50;;;6.83;;
2404;SDS011;1213;43.206;27.922;2023-01-08T08:54:30;9.47;;;7.10;;
2404;SDS011;1213;43.206;27.922;2023-01-08T08:56:56;11.10;;;5.67;;
2404;SDS011;1213;43.206;27.922;2023-01-08T08:59:21;10.20;;;7.03;;
2404;SDS011;1213;43.206;27.922;2023-01-08T09:01:46;14.20;;;7.00;;
2404;SDS011;1213;43.206;27.922;2023-01-08T09:04:12;14.43;;;7.67;;
2404;SDS011;1213;43.206;27.922;2023-01-08T09:06:37;9.10;;;6.83;;
2404;SDS011;1213;43.206;27.922;2023-01-08T09:09:02;11.97;;;6.70;;
2404;SDS011;1213;43.206;27.922;2023-01-08T09:11:28;11.73;;;6.53;;
2404;SDS011;1213;43.206;27.922;2023-01-08T09:13:53;10.00;;;7.27;;
2404;SDS011;1213;43.206;27.922;2023-01-08T09:16:18;9.93;;;7.23;;
2404;SDS011;1213;43.206;27.922;2023-01-08T09:18:43;15.43;;;5.37;;
2404;SDS011;1213;43.206;27.922;2023-01-08T09:21:09;8.10;;;5.90;;
2404;SDS011;1213;43.206;27.922;2023-01-08T09:23:34;11.27;;;6.47;;
2404;SDS011;1213;43.206;27.922;2023-01-08T09:26:00;7.17;;;5.70;;
2404;SDS011;1213;43.206;27.922;2023-01-08T09:28:26;9.03;;;6.70;;
2404;SDS011;1213;43.206;27.922;2023-01-08T09:30:51;10.80;;;7.13;;
2404;SDS011;1213;43.206;27.922;2023-01-08T09:33:16;10.03;;;6.13;;
2404;SDS011;1213;43.206;27.922;2023-01-08T09:35:42;7.97;;;5.27;;
2404;SDS011;1213;43.206;27.922;2023-01-08T09:38:07;5.17;;;4.57;;
2404;SDS011;1213;43.206;27.922;2023-01-08T09:40:52;7.77;;;4.90;;
2404;SDS011;1213;43.206;27.922;2023-01-08T09:43:18;8.80;;;3.90;;
2404;SDS011;1213;43.206;27.922;2023-01-08T09:45:47;7.00;;;4.83;;
2404;SDS011;1213;43.206;27.922;2023-01-08T09:48:14;6.33;;;4.13;;
2404;SDS011;1213;43.206;27.922;2023-01-08T09:50:41;4.83;;;4.40;;
2404;SDS011;1213;43.206;27.922;2023-01-08T09:53:09;4.77;;;4.17;;
2404;SDS011;1213;43.206;27.922;2023-01-08T09:55:36;7.43;;;4.43;;
2404;SDS011;1213;43.206;27.922;2023-01-08T09:58:03;15.83;;;5.07;;
2404;SDS011;1213;43.206;27.922;2023-01-08T10:00:29;4.03;;;3.60;;
2404;SDS011;1213;43.206;27.922;2023-01-08T10:02:55;4.40;;;3.63;;
2404;SDS011;1213;43.206;27.922;2023-01-08T10:05:21;7.13;;;4.10;;
2404;SDS011;1213;43.206;27.922;2023-01-08T10:07:47;5.93;;;4.20;;
2404;SDS011;1213;43.206;27.922;2023-01-08T10:10:22;7.17;;;4.67;;
2404;SDS011;1213;43.206;27.922;2023-01-08T10:12:49;4.17;;;3.57;;
2404;SDS011;1213;43.206;27.922;2023-01-08T10:15:16;5.23;;;4.70;;
2404;SDS011;1213;43.206;27.922;2023-01-08T10:17:46;6.13;;;4.80;;
2404;SDS011;1213;43.206;27.922;2023-01-08T10:22:38;8.13;;;3.60;;
2404;SDS011;1213;43.206;27.922;2023-01-08T10:25:17;4.60;;;3.80;;
2404;SDS011;1213;43.206;27.922;2023-01-08T10:30:14;5.17;;;3.77;;
2404;SDS011;1213;43.206;27.922;2023-01-08T10:32:44;6.40;;;4.53;;
2404;SDS011;1213;43.206;27.922;2023-01-08T10:35:15;6.50;;;3.73;;
2404;SDS011;1213;43.206;27.922;2023-01-08T10:37:41;4.63;;;3.27;;
2404;SDS011;1213;43.206;27.922;2023-01-08T10:40:16;6.73;;;5.03;;
2404;SDS011;1213;43.206;27.922;2023-01-08T10:42:44;5.53;;;4.63;;
2404;SDS011;1213;43.206;27.922;2023-01-08T10:45:11;6.57;;;4.20;;
2404;SDS011;1213;43.206;27.922;2023-01-08T10:47:39;9.67;;;5.00;;
2404;SDS011;1213;43.206;27.922;2023-01-08T10:50:14;6.63;;;4.67;;
2404;SDS011;1213;43.206;27.922;2023-01-08T10:52:50;11.93;;;6.27;;
2404;SDS011;1213;43.206;27.922;2023-01-08T10:55:25;7.87;;;4.27;;
2404;SDS011;1213;43.206;27.922;2023-01-08T11:00:27;6.83;;;5.07;;
2404;SDS011;1213;43.206;27.922;2023-01-08T11:02:52;6.83;;;4.90;;
2404;SDS011;1213;43.206;27.922;2023-01-08T11:05:18;5.57;;;4.67;;
2404;SDS011;1213;43.206;27.922;2023-01-08T11:07:47;5.40;;;4.90;;
2404;SDS011;1213;43.206;27.922;2023-01-08T11:10:19;8.23;;;5.20;;
2404;SDS011;1213;43.206;27.922;2023-01-08T11:12:45;10.80;;;5.13;;
2404;SDS011;1213;43.206;27.922;2023-01-08T11:17:42;8.33;;;5.30;;
2404;SDS011;1213;43.206;27.922;2023-01-08T11:20:09;9.10;;;5.67;;
2404;SDS011;1213;43.206;27.922;2023-01-08T11:22:42;8.23;;;5.90;;
2404;SDS011;1213;43.206;27.922;2023-01-08T11:25:11;6.27;;;4.80;;
2404;SDS011;1213;43.206;27.922;2023-01-08T11:27:38;11.90;;;5.50;;
2404;SDS011;1213;43.206;27.922;2023-01-08T11:35:20;6.57;;;4.27;;
2404;SDS011;1213;43.206;27.922;2023-01-08T11:37:52;5.80;;;4.23;;
2404;SDS011;1213;43.206;27.922;2023-01-08T11:40:32;6.00;;;4.40;;
2404;SDS011;1213;43.206;27.922;2023-01-08T11:45:32;11.67;;;5.47;;
2404;SDS011;1213;43.206;27.922;2023-01-08T12:03:07;4.23;;;3.17;;
2404;SDS011;1213;43.206;27.922;2023-01-08T12:05:40;3.50;;;3.20;;
2404;SDS011;1213;43.206;27.922;2023-01-08T12:13:30;6.73;;;4.00;;
2404;SDS011;1213;43.206;27.922;2023-01-08T12:21:19;4.47;;;3.60;;
2404;SDS011;1213;43.206;27.922;2023-01-08T12:29:38;6.93;;;4.30;;
2404;SDS011;1213;43.206;27.922;2023-01-08T12:31:46;3.87;;;3.57;;
2404;SDS011;1213;43.206;27.922;2023-01-08T12:34:16;3.80;;;3.50;;
2404;SDS011;1213;43.206;27.922;2023-01-08T12:36:45;4.47;;;3.83;;
2404;SDS011;1213;43.206;27.922;2023-01-08T12:39:13;5.40;;;3.87;;
2404;SDS011;1213;43.206;27.922;2023-01-08T12:41:39;5.77;;;3.47;;
2404;SDS011;1213;43.206;27.922;2023-01-08T12:44:08;6.43;;;3.67;;
2404;SDS011;1213;43.206;27.922;2023-01-08T12:46:36;5.17;;;4.30;;
2404;SDS011;1213;43.206;27.922;2023-01-08T12:49:03;4.70;;;3.60;;
2404;SDS011;1213;43.206;27.922;2023-01-08T12:51:40;4.90;;;4.23;;
2404;SDS011;1213;43.206;27.922;2023-01-08T12:54:18;4.40;;;3.90;;
2404;SDS011;1213;43.206;27.922;2023-01-08T12:59:30;8.70;;;4.60;;
2404;SDS011;1213;43.206;27.922;2023-01-08T13:04:55;5.97;;;5.47;;
2404;SDS011;1213;43.206;27.922;2023-01-08T13:07:27;8.93;;;4.27;;
2404;SDS011;1213;43.206;27.922;2023-01-08T13:10:40;4.67;;;3.97;;
2404;SDS011;1213;43.206;27.922;2023-01-08T13:12:40;8.47;;;5.33;;
2404;SDS011;1213;43.206;27.922;2023-01-08T13:15:07;7.90;;;4.70;;
2404;SDS011;1213;43.206;27.922;2023-01-08T13:17:46;8.53;;;4.60;;
2404;SDS011;1213;43.206;27.922;2023-01-08T13:20:13;5.40;;;4.60;;
2404;SDS011;1213;43.206;27.922;2023-01-08T13:22:43;4.93;;;4.43;;
2404;SDS011;1213;43.206;27.922;2023-01-08T13:27:44;7.80;;;5.43;;
2404;SDS011;1213;43.206;27.922;2023-01-08T13:32:53;6.60;;;4.97;;
2404;SDS011;1213;43.206;27.922;2023-01-08T13:35:20;6.60;;;5.00;;
2404;SDS011;1213;43.206;27.922;2023-01-08T13:37:50;6.17;;;4.53;;
2404;SDS011;1213;43.206;27.922;2023-01-08T13:40:35;10.00;;;5.27;;
2404;SDS011;1213;43.206;27.922;2023-01-08T13:43:00;4.17;;;3.53;;
2404;SDS011;1213;43.206;27.922;2023-01-08T13:45:26;6.80;;;4.33;;
2404;SDS011;1213;43.206;27.922;2023-01-08T13:47:55;5.30;;;4.53;;
2404;SDS011;1213;43.206;27.922;2023-01-08T13:50:21;6.73;;;4.30;;
2404;SDS011;1213;43.206;27.922;2023-01-08T13:52:48;4.83;;;4.20;;
2404;SDS011;1213;43.206;27.922;2023-01-08T13:55:21;7.70;;;6.00;;
2404;SDS011;1213;43.206;27.922;2023-01-08T13:57:52;7.57;;;5.07;;
2404;SDS011;1213;43.206;27.922;2023-01-08T14:00:26;9.70;;;5.63;;
2404;SDS011;1213;43.206;27.922;2023-01-08T14:02:52;6.43;;;4.20;;
2404;SDS011;1213;43.206;27.922;2023-01-08T14:05:23;8.70;;;4.83;;
2404;SDS011;1213;43.206;27.922;2023-01-08T14:07:49;4.83;;;4.37;;
2404;SDS011;1213;43.206;27.922;2023-01-08T14:10:15;6.33;;;4.17;;
2404;SDS011;1213;43.206;27.922;2023-01-08T14:12:41;4.67;;;4.20;;
2404;SDS011;1213;43.206;27.922;2023-01-08T14:15:08;5.43;;;4.93;;
2404;SDS011;1213;43.206;27.922;2023-01-08T14:17:34;7.50;;;5.30;;
2404;SDS011;1213;43.206;27.922;2023-01-08T14:19:59;6.20;;;4.60;;
2404;SDS011;1213;43.206;27.922;2023-01-08T14:22:28;5.20;;;4.70;;
2404;SDS011;1213;43.206;27.922;2023-01-08T14:24:55;8.73;;;6.03;;
2404;SDS011;1213;43.206;27.922;2023-01-08T14:27:25;8.83;;;4.80;;
2404;SDS011;1213;43.206;27.922;2023-01-08T14:29:51;8.00;;;4.07;;
2404;SDS011;1213;43.206;27.922;2023-01-08T14:32:17;7.03;;;5.30;;
2404;SDS011;1213;43.206;27.922;2023-01-08T14:34:43;8.87;;;7.17;;
2404;SDS011;1213;43.206;27.922;2023-01-08T14:37:15;5.03;;;4.30;;
2404;SDS011;1213;43.206;27.922;2023-01-08T14:39:41;9.70;;;7.27;;
2404;SDS011;1213;43.206;27.922;2023-01-08T14:42:19;11.57;;;7.97;;
2404;SDS011;1213;43.206;27.922;2023-01-08T14:45:05;14.97;;;9.70;;
2404;SDS011;1213;43.206;27.922;2023-01-08T14:47:36;8.87;;;6.47;;
2404;SDS011;1213;43.206;27.922;2023-01-08T14:50:03;10.30;;;6.40;;
2404;SDS011;1213;43.206;27.922;2023-01-08T14:52:29;12.43;;;6.87;;
2404;SDS011;1213;43.206;27.922;2023-01-08T14:54:57;12.10;;;5.77;;
2404;SDS011;1213;43.206;27.922;2023-01-08T14:57:24;11.60;;;5.87;;
2404;SDS011;1213;43.206;27.922;2023-01-08T14:59:55;6.97;;;5.70;;
2404;SDS011;1213;43.206;27.922;2023-01-08T15:02:24;9.43;;;6.40;;
2404;SDS011;1213;43.206;27.922;2023-01-08T15:04:59;7.00;;;6.10;;
2404;SDS011;1213;43.206;27.922;2023-01-08T15:07:24;5.50;;;4.80;;
2404;SDS011;1213;43.206;27.922;2023-01-08T15:09:57;7.63;;;5.30;;
2404;SDS011;1213;43.206;27.922;2023-01-08T15:12:25;6.60;;;5.20;;
2404;SDS011;1213;43.206;27.922;2023-01-08T15:14:51;9.97;;;7.13;;
2404;SDS011;1213;43.206;27.922;2023-01-08T15:17:19;9.90;;;5.23;;
2404;SDS011;1213;43.206;27.922;2023-01-08T15:19:45;4.90;;;4.50;;
2404;SDS011;1213;43.206;27.922;2023-01-08T15:22:14;9.77;;;5.73;;
2404;SDS011;1213;43.206;27.922;2023-01-08T15:24:53;6.13;;;5.00;;
2404;SDS011;1213;43.206;27.922;2023-01-08T15:27:19;5.40;;;4.90;;
2404;SDS011;1213;43.206;27.922;2023-01-08T15:29:48;5.43;;;4.83;;
2404;SDS011;1213;43.206;27.922;2023-01-08T15:34:43;9.37;;;4.03;;
2404;SDS011;1213;43.206;27.922;2023-01-08T15:37:09;5.47;;;4.50;;
2404;SDS011;1213;43.206;27.922;2023-01-08T15:39:34;9.90;;;7.13;;
2404;SDS011;1213;43.206;27.922;2023-01-08T15:42:00;9.30;;;4.60;;
2404;SDS011;1213;43.206;27.922;2023-01-08T15:44:43;5.90;;;5.07;;
2404;SDS011;1213;43.206;27.922;2023-01-08T15:47:10;6.57;;;4.43;;
2404;SDS011;1213;43.206;27.922;2023-01-08T15:49:35;6.80;;;5.60;;
2404;SDS011;1213;43.206;27.922;2023-01-08T15:52:00;5.53;;;5.03;;
2404;SDS011;1213;43.206;27.922;2023-01-08T15:54:26;15.20;;;6.30;;
2404;SDS011;1213;43.206;27.922;2023-01-08T15:56:52;6.63;;;5.23;;
2404;SDS011;1213;43.206;27.922;2023-01-08T15:59:17;10.30;;;5.20;;
2404;SDS011;1213;43.206;27.922;2023-01-08T16:01:42;6.00;;;4.60;;
2404;SDS011;1213;43.206;27.922;2023-01-08T16:04:08;5.00;;;4.50;;
2404;SDS011;1213;43.206;27.922;2023-01-08T16:06:33;5.33;;;4.83;;
2404;SDS011;1213;43.206;27.922;2023-01-08T16:09:00;5.73;;;5.17;;
2404;SDS011;1213;43.206;27.922;2023-01-08T16:11:25;4.17;;;3.87;;
2404;SDS011;1213;43.206;27.922;2023-01-08T16:13:51;6.03;;;4.80;;